sensor_id;sensor_type;location;lat;lon;timestamp;temperature;humidity
4826;DHT22;2427;50.934;6.776;2023-05-07T00:02:02;14.00;99.90
4826;DHT22;2427;50.934;6.776;2023-05-07T00:04:29;13.90;99.90
4826;DHT22;2427;50.934;6.776;2023-05-07T00:07:01;13.90;99.90
4826;DHT22;2427;50.934;6.776;2023-05-07T00:09:26;13.90;99.90
4826;DHT22;2427;50.934;6.776;2023-05-07T00:11:52;13.90;99.90
4826;DHT22;2427;50.934;6.776;2023-05-07T00:14:18;13.90;99.90
4826;DHT22;2427;50.934;6.776;2023-05-07T00:16:43;13.90;99.90
4826;DHT22;2427;50.934;6.776;2023-05-07T00:19:09;13.90;99.90
4826;DHT22;2427;50.934;6.776;2023-05-07T00:21:34;13.80;99.90
4826;DHT22;2427;50.934;6.776;2023-05-07T00:24:00;13.80;99.90
4826;DHT22;2427;50.934;6.776;2023-05-07T00:26:26;13.80;99.90
4826;DHT22;2427;50.934;6.776;2023-05-07T00:28:51;13.90;99.90
4826;DHT22;2427;50.934;6.776;2023-05-07T00:31:17;13.90;99.90
4826;DHT22;2427;50.934;6.776;2023-05-07T00:33:42;13.90;99.90
4826;DHT22;2427;50.934;6.776;2023-05-07T00:36:08;13.90;99.90
4826;DHT22;2427;50.934;6.776;2023-05-07T00:38:33;13.90;99.90
4826;DHT22;2427;50.934;6.776;2023-05-07T00:40:59;13.90;99.90
4826;DHT22;2427;50.934;6.776;2023-05-07T00:43:24;13.90;99.90
4826;DHT22;2427;50.934;6.776;2023-05-07T00:45:50;13.90;99.90
4826;DHT22;2427;50.934;6.776;2023-05-07T00:48:16;14.00;99.90
4826;DHT22;2427;50.934;6.776;2023-05-07T00:50:42;14.00;99.90
4826;DHT22;2427;50.934;6.776;2023-05-07T00:53:08;14.00;99.90
4826;DHT22;2427;50.934;6.776;2023-05-07T00:55:35;14.00;99.90
4826;DHT22;2427;50.934;6.776;2023-05-07T00:58:01;14.00;99.90
4826;DHT22;2427;50.934;6.776;2023-05-07T01:10:49;13.90;99.90
4826;DHT22;2427;50.934;6.776;2023-05-07T01:13:14;13.90;99.90
4826;DHT22;2427;50.934;6.776;2023-05-07T01:15:40;13.90;99.90
4826;DHT22;2427;50.934;6.776;2023-05-07T01:18:07;13.90;99.90
4826;DHT22;2427;50.934;6.776;2023-05-07T01:20:33;13.90;99.90
4826;DHT22;2427;50.934;6.776;2023-05-07T01:23:00;13.80;99.90
4826;DHT22;2427;50.934;6.776;2023-05-07T01:25:26;13.80;99.90
4826;DHT22;2427;50.934;6.776;2023-05-07T01:27:52;13.80;99.90
4826;DHT22;2427;50.934;6.776;2023-05-07T01:30:18;13.80;99.90
4826;DHT22;2427;50.934;6.776;2023-05-07T01:33:08;13.80;99.90
4826;DHT22;2427;50.934;6.776;2023-05-07T01:35:40;13.80;99.90
4826;DHT22;2427;50.934;6.776;2023-05-07T01:38:07;13.80;99.90
4826;DHT22;2427;50.934;6.776;2023-05-07T01:40:34;13.80;99.90
4826;DHT22;2427;50.934;6.776;2023-05-07T01:43:02;13.80;99.90
4826;DHT22;2427;50.934;6.776;2023-05-07T01:45:30;13.80;99.90
4826;DHT22;2427;50.934;6.776;2023-05-07T01:47:56;13.80;99.90
4826;DHT22;2427;50.934;6.776;2023-05-07T01:50:23;13.80;99.90
4826;DHT22;2427;50.934;6.776;2023-05-07T01:52:50;13.80;99.90
4826;DHT22;2427;50.934;6.776;2023-05-07T01:55:16;13.80;99.90
4826;DHT22;2427;50.934;6.776;2023-05-07T01:57:41;13.80;99.90
4826;DHT22;2427;50.934;6.776;2023-05-07T02:00:07;13.80;99.90
4826;DHT22;2427;50.934;6.776;2023-05-07T02:02:34;13.80;99.90
4826;DHT22;2427;50.934;6.776;2023-05-07T02:05:00;13.80;99.90
4826;DHT22;2427;50.934;6.776;2023-05-07T02:07:27;13.70;99.90
4826;DHT22;2427;50.934;6.776;2023-05-07T02:09:53;13.70;99.90
4826;DHT22;2427;50.934;6.776;2023-05-07T02:12:20;13.70;99.90
4826;DHT22;2427;50.934;6.776;2023-05-07T02:14:46;13.70;99.90
4826;DHT22;2427;50.934;6.776;2023-05-07T02:17:12;13.60;99.90
4826;DHT22;2427;50.934;6.776;2023-05-07T02:19:37;13.50;99.90
4826;DHT22;2427;50.934;6.776;2023-05-07T02:22:03;13.50;99.90
4826;DHT22;2427;50.934;6.776;2023-05-07T02:24:28;13.50;99.90
4826;DHT22;2427;50.934;6.776;2023-05-07T02:26:54;13.50;99.90
4826;DHT22;2427;50.934;6.776;2023-05-07T02:29:20;13.40;99.90
4826;DHT22;2427;50.934;6.776;2023-05-07T02:31:45;13.40;99.90
4826;DHT22;2427;50.934;6.776;2023-05-07T02:34:11;13.40;99.90
4826;DHT22;2427;50.934;6.776;2023-05-07T02:36:36;13.40;99.90
4826;DHT22;2427;50.934;6.776;2023-05-07T02:39:02;13.40;99.90
4826;DHT22;2427;50.934;6.776;2023-05-07T02:41:28;13.30;99.90
4826;DHT22;2427;50.934;6.776;2023-05-07T02:43:54;13.40;99.90
4826;DHT22;2427;50.934;6.776;2023-05-07T02:46:19;13.40;99.90
4826;DHT22;2427;50.934;6.776;2023-05-07T02:48:45;13.30;99.90
4826;DHT22;2427;50.934;6.776;2023-05-07T02:51:10;13.30;99.90
4826;DHT22;2427;50.934;6.776;2023-05-07T02:53:36;13.30;99.90
4826;DHT22;2427;50.934;6.776;2023-05-07T02:56:02;13.40;99.90
4826;DHT22;2427;50.934;6.776;2023-05-07T02:58:27;13.40;99.90
4826;DHT22;2427;50.934;6.776;2023-05-07T03:00:53;13.40;99.90
4826;DHT22;2427;50.934;6.776;2023-05-07T03:03:20;13.40;99.90
4826;DHT22;2427;50.934;6.776;2023-05-07T03:05:45;13.40;99.90
4826;DHT22;2427;50.934;6.776;2023-05-07T03:08:11;13.30;99.90
4826;DHT22;2427;50.934;6.776;2023-05-07T03:10:37;13.30;99.90
4826;DHT22;2427;50.934;6.776;2023-05-07T03:13:03;13.30;99.90
4826;DHT22;2427;50.934;6.776;2023-05-07T03:15:29;13.30;99.90
4826;DHT22;2427;50.934;6.776;2023-05-07T03:17:55;13.20;99.90
4826;DHT22;2427;50.934;6.776;2023-05-07T03:20:20;13.20;99.90
4826;DHT22;2427;50.934;6.776;2023-05-07T03:22:46;13.10;99.90
4826;DHT22;2427;50.934;6.776;2023-05-07T03:25:12;13.10;99.90
4826;DHT22;2427;50.934;6.776;2023-05-07T03:27:38;13.00;99.90
4826;DHT22;2427;50.934;6.776;2023-05-07T03:30:04;13.00;99.90
4826;DHT22;2427;50.934;6.776;2023-05-07T03:32:29;12.90;99.90
4826;DHT22;2427;50.934;6.776;2023-05-07T03:34:55;12.90;99.90
4826;DHT22;2427;50.934;6.776;2023-05-07T03:37:21;12.90;99.90
4826;DHT22;2427;50.934;6.776;2023-05-07T03:39:47;12.80;99.90
4826;DHT22;2427;50.934;6.776;2023-05-07T03:42:12;12.80;99.90
4826;DHT22;2427;50.934;6.776;2023-05-07T03:44:38;12.80;99.90
4826;DHT22;2427;50.934;6.776;2023-05-07T03:47:04;12.70;99.90
4826;DHT22;2427;50.934;6.776;2023-05-07T03:49:29;12.70;99.90
4826;DHT22;2427;50.934;6.776;2023-05-07T03:51:55;12.70;99.90
4826;DHT22;2427;50.934;6.776;2023-05-07T03:54:21;12.70;99.90
4826;DHT22;2427;50.934;6.776;2023-05-07T03:56:46;12.80;99.90
4826;DHT22;2427;50.934;6.776;2023-05-07T03:59:12;12.80;99.90
4826;DHT22;2427;50.934;6.776;2023-05-07T04:01:38;12.70;99.90
4826;DHT22;2427;50.934;6.776;2023-05-07T04:04:04;12.80;99.90
4826;DHT22;2427;50.934;6.776;2023-05-07T04:06:30;12.80;99.90
4826;DHT22;2427;50.934;6.776;2023-05-07T04:08:56;12.80;99.90
4826;DHT22;2427;50.934;6.776;2023-05-07T04:11:22;12.80;99.90
4826;DHT22;2427;50.934;6.776;2023-05-07T04:13:47;12.90;99.90
4826;DHT22;2427;50.934;6.776;2023-05-07T04:16:13;12.90;99.90
4826;DHT22;2427;50.934;6.776;2023-05-07T04:18:38;13.00;99.90
4826;DHT22;2427;50.934;6.776;2023-05-07T04:21:04;13.00;99.90
4826;DHT22;2427;50.934;6.776;2023-05-07T04:23:30;12.90;99.90
4826;DHT22;2427;50.934;6.776;2023-05-07T04:25:56;12.90;99.90
4826;DHT22;2427;50.934;6.776;2023-05-07T04:28:22;12.90;99.90
4826;DHT22;2427;50.934;6.776;2023-05-07T04:30:48;12.90;99.90
4826;DHT22;2427;50.934;6.776;2023-05-07T04:33:14;13.00;99.90
4826;DHT22;2427;50.934;6.776;2023-05-07T04:35:42;13.00;99.90
4826;DHT22;2427;50.934;6.776;2023-05-07T04:38:07;13.00;99.90
4826;DHT22;2427;50.934;6.776;2023-05-07T04:40:35;13.00;99.90
4826;DHT22;2427;50.934;6.776;2023-05-07T04:43:00;13.10;99.90
4826;DHT22;2427;50.934;6.776;2023-05-07T04:45:26;13.10;99.90
4826;DHT22;2427;50.934;6.776;2023-05-07T04:47:52;13.10;99.90
4826;DHT22;2427;50.934;6.776;2023-05-07T04:50:17;13.10;99.90
4826;DHT22;2427;50.934;6.776;2023-05-07T04:52:44;13.10;99.90
4826;DHT22;2427;50.934;6.776;2023-05-07T04:55:10;13.20;99.90
4826;DHT22;2427;50.934;6.776;2023-05-07T04:57:36;13.20;99.90
4826;DHT22;2427;50.934;6.776;2023-05-07T05:00:03;13.20;99.90
4826;DHT22;2427;50.934;6.776;2023-05-07T05:02:29;13.30;99.90
4826;DHT22;2427;50.934;6.776;2023-05-07T05:04:55;13.30;99.90
4826;DHT22;2427;50.934;6.776;2023-05-07T05:07:20;13.40;99.90
4826;DHT22;2427;50.934;6.776;2023-05-07T05:09:46;13.40;99.90
4826;DHT22;2427;50.934;6.776;2023-05-07T05:12:11;13.50;99.90
4826;DHT22;2427;50.934;6.776;2023-05-07T05:14:37;13.50;99.90
4826;DHT22;2427;50.934;6.776;2023-05-07T05:17:02;13.50;99.90
4826;DHT22;2427;50.934;6.776;2023-05-07T05:19:28;13.60;99.90
4826;DHT22;2427;50.934;6.776;2023-05-07T05:21:54;13.60;99.90
4826;DHT22;2427;50.934;6.776;2023-05-07T05:24:19;13.60;99.90
4826;DHT22;2427;50.934;6.776;2023-05-07T05:26:45;13.60;99.90
4826;DHT22;2427;50.934;6.776;2023-05-07T05:29:11;13.70;99.90
4826;DHT22;2427;50.934;6.776;2023-05-07T05:31:36;13.70;99.90
4826;DHT22;2427;50.934;6.776;2023-05-07T05:34:02;13.80;99.90
4826;DHT22;2427;50.934;6.776;2023-05-07T05:36:28;13.80;99.90
4826;DHT22;2427;50.934;6.776;2023-05-07T05:38:55;13.90;99.90
4826;DHT22;2427;50.934;6.776;2023-05-07T05:41:20;14.00;99.90
4826;DHT22;2427;50.934;6.776;2023-05-07T05:43:46;14.10;99.90
4826;DHT22;2427;50.934;6.776;2023-05-07T05:46:12;14.10;99.90
4826;DHT22;2427;50.934;6.776;2023-05-07T05:48:38;14.20;99.90
4826;DHT22;2427;50.934;6.776;2023-05-07T05:51:03;14.30;99.90
4826;DHT22;2427;50.934;6.776;2023-05-07T05:53:29;14.30;99.90
4826;DHT22;2427;50.934;6.776;2023-05-07T05:55:54;14.40;99.90
4826;DHT22;2427;50.934;6.776;2023-05-07T05:58:20;14.50;99.90
4826;DHT22;2427;50.934;6.776;2023-05-07T06:00:46;14.60;99.90
4826;DHT22;2427;50.934;6.776;2023-05-07T06:03:13;14.70;99.90
4826;DHT22;2427;50.934;6.776;2023-05-07T06:05:39;14.80;99.90
4826;DHT22;2427;50.934;6.776;2023-05-07T06:08:04;14.90;99.90
4826;DHT22;2427;50.934;6.776;2023-05-07T06:10:30;14.90;99.90
4826;DHT22;2427;50.934;6.776;2023-05-07T06:12:56;15.00;99.90
4826;DHT22;2427;50.934;6.776;2023-05-07T06:15:21;15.10;99.90
4826;DHT22;2427;50.934;6.776;2023-05-07T06:17:47;15.20;82.50
4826;DHT22;2427;50.934;6.776;2023-05-07T06:20:12;15.30;70.80
4826;DHT22;2427;50.934;6.776;2023-05-07T06:22:38;15.40;52.70
4826;DHT22;2427;50.934;6.776;2023-05-07T06:25:03;15.50;34.80
4826;DHT22;2427;50.934;6.776;2023-05-07T06:27:29;15.50;1.00
4826;DHT22;2427;50.934;6.776;2023-05-07T06:29:55;15.60;1.00
4826;DHT22;2427;50.934;6.776;2023-05-07T06:32:20;15.70;1.00
4826;DHT22;2427;50.934;6.776;2023-05-07T06:34:46;15.80;1.00
4826;DHT22;2427;50.934;6.776;2023-05-07T06:37:11;15.80;1.00
4826;DHT22;2427;50.934;6.776;2023-05-07T06:39:37;15.90;1.00
4826;DHT22;2427;50.934;6.776;2023-05-07T06:42:03;16.00;1.00
4826;DHT22;2427;50.934;6.776;2023-05-07T06:44:30;16.10;1.00
4826;DHT22;2427;50.934;6.776;2023-05-07T06:46:56;16.20;1.00
4826;DHT22;2427;50.934;6.776;2023-05-07T06:49:21;16.30;1.00
4826;DHT22;2427;50.934;6.776;2023-05-07T06:51:47;16.40;1.00
4826;DHT22;2427;50.934;6.776;2023-05-07T06:54:12;16.50;99.90
4826;DHT22;2427;50.934;6.776;2023-05-07T06:56:38;16.70;99.90
4826;DHT22;2427;50.934;6.776;2023-05-07T06:59:04;16.80;99.90
4826;DHT22;2427;50.934;6.776;2023-05-07T07:01:29;17.00;32.10
4826;DHT22;2427;50.934;6.776;2023-05-07T07:03:55;17.10;1.00
4826;DHT22;2427;50.934;6.776;2023-05-07T07:06:20;17.20;1.00
4826;DHT22;2427;50.934;6.776;2023-05-07T07:08:46;17.30;99.90
4826;DHT22;2427;50.934;6.776;2023-05-07T07:11:12;17.40;1.00
4826;DHT22;2427;50.934;6.776;2023-05-07T07:13:37;17.50;99.90
4826;DHT22;2427;50.934;6.776;2023-05-07T07:16:03;17.70;99.90
4826;DHT22;2427;50.934;6.776;2023-05-07T07:18:29;17.80;1.00
4826;DHT22;2427;50.934;6.776;2023-05-07T07:20:54;17.90;1.00
4826;DHT22;2427;50.934;6.776;2023-05-07T07:23:20;18.00;1.00
4826;DHT22;2427;50.934;6.776;2023-05-07T07:25:46;18.20;1.00
4826;DHT22;2427;50.934;6.776;2023-05-07T07:28:12;18.40;99.90
4826;DHT22;2427;50.934;6.776;2023-05-07T07:30:38;18.50;99.90
4826;DHT22;2427;50.934;6.776;2023-05-07T07:33:03;18.70;1.00
4826;DHT22;2427;50.934;6.776;2023-05-07T07:35:29;18.70;1.00
4826;DHT22;2427;50.934;6.776;2023-05-07T07:37:55;18.70;1.00
4826;DHT22;2427;50.934;6.776;2023-05-07T07:40:21;18.80;1.00
4826;DHT22;2427;50.934;6.776;2023-05-07T07:42:47;18.90;1.00
4826;DHT22;2427;50.934;6.776;2023-05-07T07:45:12;19.00;1.00
4826;DHT22;2427;50.934;6.776;2023-05-07T07:47:39;19.10;1.00
4826;DHT22;2427;50.934;6.776;2023-05-07T07:50:05;19.20;99.90
4826;DHT22;2427;50.934;6.776;2023-05-07T07:52:31;19.30;99.90
4826;DHT22;2427;50.934;6.776;2023-05-07T07:54:57;19.30;99.90
4826;DHT22;2427;50.934;6.776;2023-05-07T07:57:22;19.30;99.90
4826;DHT22;2427;50.934;6.776;2023-05-07T07:59:48;19.40;99.90
4826;DHT22;2427;50.934;6.776;2023-05-07T08:02:14;19.60;99.90
4826;DHT22;2427;50.934;6.776;2023-05-07T08:04:39;19.60;99.90
4826;DHT22;2427;50.934;6.776;2023-05-07T08:07:05;19.70;67.50
4826;DHT22;2427;50.934;6.776;2023-05-07T08:09:31;19.70;12.90
4826;DHT22;2427;50.934;6.776;2023-05-07T08:11:57;19.70;87.40
4826;DHT22;2427;50.934;6.776;2023-05-07T08:14:22;19.80;31.90
4826;DHT22;2427;50.934;6.776;2023-05-07T08:16:48;19.90;1.00
4826;DHT22;2427;50.934;6.776;2023-05-07T08:19:14;19.90;1.00
4826;DHT22;2427;50.934;6.776;2023-05-07T08:21:39;20.00;7.20
4826;DHT22;2427;50.934;6.776;2023-05-07T08:24:06;20.10;1.00
4826;DHT22;2427;50.934;6.776;2023-05-07T08:26:31;20.10;1.00
4826;DHT22;2427;50.934;6.776;2023-05-07T08:28:57;20.20;1.00
4826;DHT22;2427;50.934;6.776;2023-05-07T08:31:22;20.30;1.00
4826;DHT22;2427;50.934;6.776;2023-05-07T08:33:48;20.50;1.00
4826;DHT22;2427;50.934;6.776;2023-05-07T08:36:14;20.60;1.00
4826;DHT22;2427;50.934;6.776;2023-05-07T08:38:39;20.60;1.00
4826;DHT22;2427;50.934;6.776;2023-05-07T08:41:10;20.70;1.00
4826;DHT22;2427;50.934;6.776;2023-05-07T08:43:38;20.90;1.00
4826;DHT22;2427;50.934;6.776;2023-05-07T08:46:06;21.00;1.00
4826;DHT22;2427;50.934;6.776;2023-05-07T08:48:34;21.00;1.00
4826;DHT22;2427;50.934;6.776;2023-05-07T08:50:59;21.00;1.00
4826;DHT22;2427;50.934;6.776;2023-05-07T08:53:25;21.00;1.00
4826;DHT22;2427;50.934;6.776;2023-05-07T08:55:51;21.00;1.00
4826;DHT22;2427;50.934;6.776;2023-05-07T08:58:17;21.00;1.00
4826;DHT22;2427;50.934;6.776;2023-05-07T09:00:42;20.90;1.00
4826;DHT22;2427;50.934;6.776;2023-05-07T09:03:08;20.80;1.00
4826;DHT22;2427;50.934;6.776;2023-05-07T09:05:37;20.80;1.00
4826;DHT22;2427;50.934;6.776;2023-05-07T09:08:03;20.80;1.00
4826;DHT22;2427;50.934;6.776;2023-05-07T09:10:30;20.80;1.00
4826;DHT22;2427;50.934;6.776;2023-05-07T09:12:57;20.80;1.00
4826;DHT22;2427;50.934;6.776;2023-05-07T09:15:23;20.90;1.00
4826;DHT22;2427;50.934;6.776;2023-05-07T09:17:48;20.90;1.00
4826;DHT22;2427;50.934;6.776;2023-05-07T09:20:14;20.80;1.00
4826;DHT22;2427;50.934;6.776;2023-05-07T09:22:41;20.80;1.00
4826;DHT22;2427;50.934;6.776;2023-05-07T09:25:07;20.90;1.00
4826;DHT22;2427;50.934;6.776;2023-05-07T09:27:33;20.90;1.00
4826;DHT22;2427;50.934;6.776;2023-05-07T09:29:59;21.00;1.00
4826;DHT22;2427;50.934;6.776;2023-05-07T09:32:25;21.10;1.00
4826;DHT22;2427;50.934;6.776;2023-05-07T09:34:52;21.30;1.00
4826;DHT22;2427;50.934;6.776;2023-05-07T09:37:18;21.40;1.00
4826;DHT22;2427;50.934;6.776;2023-05-07T09:39:48;21.60;1.00
4826;DHT22;2427;50.934;6.776;2023-05-07T09:42:14;21.70;1.00
4826;DHT22;2427;50.934;6.776;2023-05-07T09:44:41;21.80;1.00
4826;DHT22;2427;50.934;6.776;2023-05-07T09:47:08;21.90;1.00
4826;DHT22;2427;50.934;6.776;2023-05-07T09:49:36;22.00;1.00
4826;DHT22;2427;50.934;6.776;2023-05-07T09:52:04;22.00;99.90
4826;DHT22;2427;50.934;6.776;2023-05-07T09:54:32;21.90;99.90
4826;DHT22;2427;50.934;6.776;2023-05-07T09:56:59;21.90;99.90
4826;DHT22;2427;50.934;6.776;2023-05-07T09:59:28;22.00;99.90
4826;DHT22;2427;50.934;6.776;2023-05-07T10:01:57;22.00;99.90
4826;DHT22;2427;50.934;6.776;2023-05-07T10:04:25;22.10;99.90
4826;DHT22;2427;50.934;6.776;2023-05-07T10:06:52;22.20;99.90
4826;DHT22;2427;50.934;6.776;2023-05-07T10:09:19;22.30;99.90
4826;DHT22;2427;50.934;6.776;2023-05-07T10:11:45;22.40;99.90
4826;DHT22;2427;50.934;6.776;2023-05-07T10:14:13;22.50;99.90
4826;DHT22;2427;50.934;6.776;2023-05-07T10:16:39;22.60;99.90
4826;DHT22;2427;50.934;6.776;2023-05-07T10:19:07;22.70;99.90
4826;DHT22;2427;50.934;6.776;2023-05-07T10:21:36;22.80;99.90
4826;DHT22;2427;50.934;6.776;2023-05-07T10:24:09;23.10;99.90
4826;DHT22;2427;50.934;6.776;2023-05-07T10:26:41;23.30;99.90
4826;DHT22;2427;50.934;6.776;2023-05-07T10:29:14;23.40;99.90
4826;DHT22;2427;50.934;6.776;2023-05-07T10:34:35;24.20;99.90
4826;DHT22;2427;50.934;6.776;2023-05-07T10:37:02;24.40;99.90
4826;DHT22;2427;50.934;6.776;2023-05-07T10:39:28;24.60;99.90
4826;DHT22;2427;50.934;6.776;2023-05-07T10:41:55;24.90;99.90
4826;DHT22;2427;50.934;6.776;2023-05-07T10:44:28;25.00;99.90
4826;DHT22;2427;50.934;6.776;2023-05-07T10:47:07;24.90;99.90
4826;DHT22;2427;50.934;6.776;2023-05-07T10:49:35;24.90;99.90
4826;DHT22;2427;50.934;6.776;2023-05-07T10:52:14;24.90;99.90
4826;DHT22;2427;50.934;6.776;2023-05-07T10:54:40;24.70;99.90
4826;DHT22;2427;50.934;6.776;2023-05-07T10:57:34;24.60;99.90
4826;DHT22;2427;50.934;6.776;2023-05-07T11:00:40;24.60;99.90
4826;DHT22;2427;50.934;6.776;2023-05-07T11:05:25;24.60;99.90
4826;DHT22;2427;50.934;6.776;2023-05-07T11:08:01;24.50;99.90
4826;DHT22;2427;50.934;6.776;2023-05-07T11:10:53;24.50;99.90
4826;DHT22;2427;50.934;6.776;2023-05-07T11:13:46;24.40;99.90
4826;DHT22;2427;50.934;6.776;2023-05-07T11:16:22;24.20;99.90
4826;DHT22;2427;50.934;6.776;2023-05-07T11:18:56;24.10;99.90
4826;DHT22;2427;50.934;6.776;2023-05-07T11:21:41;24.10;99.90
4826;DHT22;2427;50.934;6.776;2023-05-07T11:24:08;24.00;99.90
4826;DHT22;2427;50.934;6.776;2023-05-07T11:26:49;24.00;99.90
4826;DHT22;2427;50.934;6.776;2023-05-07T11:29:16;23.80;99.90
4826;DHT22;2427;50.934;6.776;2023-05-07T11:31:42;23.80;99.90
4826;DHT22;2427;50.934;6.776;2023-05-07T11:34:08;23.70;99.90
4826;DHT22;2427;50.934;6.776;2023-05-07T11:36:34;23.60;99.90
4826;DHT22;2427;50.934;6.776;2023-05-07T11:38:59;23.50;99.90
4826;DHT22;2427;50.934;6.776;2023-05-07T11:41:35;23.40;99.90
4826;DHT22;2427;50.934;6.776;2023-05-07T11:44:02;23.40;99.90
4826;DHT22;2427;50.934;6.776;2023-05-07T11:46:28;23.30;99.90
4826;DHT22;2427;50.934;6.776;2023-05-07T11:48:55;23.30;99.90
4826;DHT22;2427;50.934;6.776;2023-05-07T11:51:23;23.30;99.90
4826;DHT22;2427;50.934;6.776;2023-05-07T11:53:49;23.30;99.90
4826;DHT22;2427;50.934;6.776;2023-05-07T11:56:17;23.30;99.90
4826;DHT22;2427;50.934;6.776;2023-05-07T11:58:44;23.30;99.90
4826;DHT22;2427;50.934;6.776;2023-05-07T12:01:11;23.40;99.90
4826;DHT22;2427;50.934;6.776;2023-05-07T12:03:41;23.40;99.90
4826;DHT22;2427;50.934;6.776;2023-05-07T12:06:14;23.50;99.90
4826;DHT22;2427;50.934;6.776;2023-05-07T12:08:42;23.60;99.90
4826;DHT22;2427;50.934;6.776;2023-05-07T12:11:10;23.60;99.90
4826;DHT22;2427;50.934;6.776;2023-05-07T12:13:37;23.70;99.90
4826;DHT22;2427;50.934;6.776;2023-05-07T12:16:04;23.50;99.90
4826;DHT22;2427;50.934;6.776;2023-05-07T12:18:31;23.40;99.90
4826;DHT22;2427;50.934;6.776;2023-05-07T12:20:57;23.20;99.90
4826;DHT22;2427;50.934;6.776;2023-05-07T12:23:22;23.20;99.90
4826;DHT22;2427;50.934;6.776;2023-05-07T12:25:48;23.20;99.90
4826;DHT22;2427;50.934;6.776;2023-05-07T12:28:15;23.10;99.90
4826;DHT22;2427;50.934;6.776;2023-05-07T12:30:43;22.90;99.90
4826;DHT22;2427;50.934;6.776;2023-05-07T12:33:09;22.80;99.90
4826;DHT22;2427;50.934;6.776;2023-05-07T12:35:40;22.70;99.90
4826;DHT22;2427;50.934;6.776;2023-05-07T12:38:16;22.60;99.90
4826;DHT22;2427;50.934;6.776;2023-05-07T12:43:15;22.40;99.90
4826;DHT22;2427;50.934;6.776;2023-05-07T12:45:42;22.20;99.90
4826;DHT22;2427;50.934;6.776;2023-05-07T12:48:10;22.10;99.90
4826;DHT22;2427;50.934;6.776;2023-05-07T12:50:35;21.90;99.90
4826;DHT22;2427;50.934;6.776;2023-05-07T12:53:03;21.70;99.90
4826;DHT22;2427;50.934;6.776;2023-05-07T12:55:31;21.60;99.90
4826;DHT22;2427;50.934;6.776;2023-05-07T12:58:00;21.60;1.00
4826;DHT22;2427;50.934;6.776;2023-05-07T13:00:36;21.50;1.00
4826;DHT22;2427;50.934;6.776;2023-05-07T13:03:02;21.40;99.90
4826;DHT22;2427;50.934;6.776;2023-05-07T13:05:27;21.30;1.00
4826;DHT22;2427;50.934;6.776;2023-05-07T13:07:54;21.20;1.00
4826;DHT22;2427;50.934;6.776;2023-05-07T13:10:21;21.00;1.00
4826;DHT22;2427;50.934;6.776;2023-05-07T13:12:46;21.00;1.00
4826;DHT22;2427;50.934;6.776;2023-05-07T13:15:12;20.90;1.00
4826;DHT22;2427;50.934;6.776;2023-05-07T13:17:37;20.70;31.40
4826;DHT22;2427;50.934;6.776;2023-05-07T13:20:03;20.70;94.90
4826;DHT22;2427;50.934;6.776;2023-05-07T13:22:29;20.70;1.00
4826;DHT22;2427;50.934;6.776;2023-05-07T13:24:54;20.70;99.90
4826;DHT22;2427;50.934;6.776;2023-05-07T13:27:20;20.70;43.10
4826;DHT22;2427;50.934;6.776;2023-05-07T13:29:46;20.70;99.50
4826;DHT22;2427;50.934;6.776;2023-05-07T13:32:11;20.60;1.00
4826;DHT22;2427;50.934;6.776;2023-05-07T13:34:37;20.50;1.00
4826;DHT22;2427;50.934;6.776;2023-05-07T13:37:02;20.20;99.90
4826;DHT22;2427;50.934;6.776;2023-05-07T13:39:28;20.10;99.90
4826;DHT22;2427;50.934;6.776;2023-05-07T13:41:54;20.10;99.90
4826;DHT22;2427;50.934;6.776;2023-05-07T13:44:19;20.00;99.90
4826;DHT22;2427;50.934;6.776;2023-05-07T13:46:46;20.00;99.90
4826;DHT22;2427;50.934;6.776;2023-05-07T13:49:11;20.00;99.90
4826;DHT22;2427;50.934;6.776;2023-05-07T13:51:38;19.90;1.00
4826;DHT22;2427;50.934;6.776;2023-05-07T13:54:03;19.80;1.00
4826;DHT22;2427;50.934;6.776;2023-05-07T13:56:29;19.70;1.00
4826;DHT22;2427;50.934;6.776;2023-05-07T13:58:57;19.60;1.00
4826;DHT22;2427;50.934;6.776;2023-05-07T14:01:23;19.60;1.00
4826;DHT22;2427;50.934;6.776;2023-05-07T14:03:49;19.60;1.00
4826;DHT22;2427;50.934;6.776;2023-05-07T14:06:14;19.60;99.90
4826;DHT22;2427;50.934;6.776;2023-05-07T14:08:40;19.50;1.00
4826;DHT22;2427;50.934;6.776;2023-05-07T14:11:06;19.50;1.00
4826;DHT22;2427;50.934;6.776;2023-05-07T14:13:31;19.70;1.00
4826;DHT22;2427;50.934;6.776;2023-05-07T14:15:58;19.90;1.00
4826;DHT22;2427;50.934;6.776;2023-05-07T14:18:23;20.00;1.00
4826;DHT22;2427;50.934;6.776;2023-05-07T14:20:49;20.20;99.90
4826;DHT22;2427;50.934;6.776;2023-05-07T14:23:15;20.20;99.90
4826;DHT22;2427;50.934;6.776;2023-05-07T14:25:42;20.10;99.90
4826;DHT22;2427;50.934;6.776;2023-05-07T14:28:09;20.10;99.90
4826;DHT22;2427;50.934;6.776;2023-05-07T14:30:34;20.10;99.90
4826;DHT22;2427;50.934;6.776;2023-05-07T14:33:00;20.20;99.90
4826;DHT22;2427;50.934;6.776;2023-05-07T14:35:26;20.30;99.90
4826;DHT22;2427;50.934;6.776;2023-05-07T14:37:51;20.30;1.00
4826;DHT22;2427;50.934;6.776;2023-05-07T14:40:17;20.40;1.00
4826;DHT22;2427;50.934;6.776;2023-05-07T14:42:42;20.40;1.00
4826;DHT22;2427;50.934;6.776;2023-05-07T14:45:08;20.50;1.00
4826;DHT22;2427;50.934;6.776;2023-05-07T14:47:34;20.50;1.00
4826;DHT22;2427;50.934;6.776;2023-05-07T14:50:00;20.60;1.00
4826;DHT22;2427;50.934;6.776;2023-05-07T14:52:26;20.70;1.00
4826;DHT22;2427;50.934;6.776;2023-05-07T14:54:52;20.70;1.00
4826;DHT22;2427;50.934;6.776;2023-05-07T14:57:18;20.70;1.00
4826;DHT22;2427;50.934;6.776;2023-05-07T14:59:44;20.60;1.00
4826;DHT22;2427;50.934;6.776;2023-05-07T15:02:11;20.60;1.00
4826;DHT22;2427;50.934;6.776;2023-05-07T15:04:37;20.50;1.00
4826;DHT22;2427;50.934;6.776;2023-05-07T15:07:03;20.50;1.00
4826;DHT22;2427;50.934;6.776;2023-05-07T15:09:29;20.60;1.00
4826;DHT22;2427;50.934;6.776;2023-05-07T15:11:55;20.70;1.00
4826;DHT22;2427;50.934;6.776;2023-05-07T15:14:20;20.70;1.00
4826;DHT22;2427;50.934;6.776;2023-05-07T15:16:47;20.80;1.00
4826;DHT22;2427;50.934;6.776;2023-05-07T15:19:13;21.00;1.00
4826;DHT22;2427;50.934;6.776;2023-05-07T15:21:40;21.00;1.00
4826;DHT22;2427;50.934;6.776;2023-05-07T15:24:06;21.10;1.00
4826;DHT22;2427;50.934;6.776;2023-05-07T15:26:32;21.20;1.00
4826;DHT22;2427;50.934;6.776;2023-05-07T15:28:57;21.30;1.00
4826;DHT22;2427;50.934;6.776;2023-05-07T15:31:26;21.40;1.00
4826;DHT22;2427;50.934;6.776;2023-05-07T15:33:51;21.70;1.00
4826;DHT22;2427;50.934;6.776;2023-05-07T15:36:17;22.00;1.00
4826;DHT22;2427;50.934;6.776;2023-05-07T15:38:43;22.10;1.00
4826;DHT22;2427;50.934;6.776;2023-05-07T15:41:09;22.20;1.00
4826;DHT22;2427;50.934;6.776;2023-05-07T15:43:44;22.60;1.00
4826;DHT22;2427;50.934;6.776;2023-05-07T15:46:11;22.80;99.90
4826;DHT22;2427;50.934;6.776;2023-05-07T15:48:36;22.90;99.90
4826;DHT22;2427;50.934;6.776;2023-05-07T15:51:02;23.10;99.90
4826;DHT22;2427;50.934;6.776;2023-05-07T15:53:28;23.20;99.90
4826;DHT22;2427;50.934;6.776;2023-05-07T15:55:53;23.10;99.90
4826;DHT22;2427;50.934;6.776;2023-05-07T15:58:19;23.00;99.90
4826;DHT22;2427;50.934;6.776;2023-05-07T16:00:45;22.90;99.90
4826;DHT22;2427;50.934;6.776;2023-05-07T16:03:11;22.70;99.90
4826;DHT22;2427;50.934;6.776;2023-05-07T16:05:36;22.50;99.90
4826;DHT22;2427;50.934;6.776;2023-05-07T16:08:02;22.40;99.90
4826;DHT22;2427;50.934;6.776;2023-05-07T16:10:29;22.10;99.90
4826;DHT22;2427;50.934;6.776;2023-05-07T16:12:55;22.00;99.90
4826;DHT22;2427;50.934;6.776;2023-05-07T16:15:20;22.00;99.90
4826;DHT22;2427;50.934;6.776;2023-05-07T16:17:47;21.80;99.90
4826;DHT22;2427;50.934;6.776;2023-05-07T16:20:16;21.70;99.90
4826;DHT22;2427;50.934;6.776;2023-05-07T16:22:44;21.50;99.90